Kuroki, North Dakota
Current Conditions -  °F | °C
As of 3:58 PM on Wednesday 28 Jan 2015 (Local Time) from KMIB Reporting Station
Overcast Overcast  
Wind Chill: 15°   Ceiling: 700
Heat Index: 28°   Visibility: 10mi
Dew Point: 28°   Wind: 22mph
Humidity: 100%   Direction: 320°NW
Pressure: 29.99"   Gusts: NA
Location:  48.9464°N, 101.365°W
Report Text: KMIB 282158Z AUTO 32019KT 10SM OVC007 M02/M02 A2999 RMK AO2 PK WND 31027/40 DZE2141 PRESRR SLP184 P0000 T10201020 $
Loading
Personal Weather Stations






























Interactive Weather Map New forecast layout! Learn more

10-Day Weather Forecast

Advertisements
Track Severe Weather on mobile